Time;durP1;ratioP1;P1;durP2;ratioP2;P2;SDS_P1;SDS_P2;PMS_P1;PMS_P2;Temp;Humidity;BMP_temperature;BMP_pressure;BME280_temperature;BME280_humidity;BME280_pressure;Samples;Min_cycle;Max_cycle;Signal;HPM_P1;HPM_P2
2021/08/21 00:14:28;;;;;;;17.03;10.05;;;;;;;16.20;100.00;100525.64;714312;1177;114116;-76
2021/08/21 00:29:32;;;;;;;14.13;9.40;;;;;;;16.33;100.00;100529.63;714370;1177;114446;-77
2021/08/21 00:44:35;;;;;;;16.30;10.07;;;;;;;16.29;100.00;100534.42;714188;1177;114314;-77
2021/08/21 00:59:38;;;;;;;22.95;11.45;;;;;;;16.24;100.00;100534.09;713864;1177;115578;-76
2021/08/21 01:14:43;;;;;;;26.83;10.18;;;;;;;15.91;100.00;100544.66;713784;1182;114875;-79
2021/08/21 01:29:46;;;;;;;20.00;8.48;;;;;;;15.94;100.00;100546.97;713663;1176;114417;-78
2021/08/21 01:44:49;;;;;;;18.30;8.60;;;;;;;15.82;100.00;100538.52;713802;1196;114373;-78
2021/08/21 01:59:52;;;;;;;15.70;9.07;;;;;;;15.81;100.00;100536.89;713812;1200;114319;-78
2021/08/21 02:14:54;;;;;;;15.13;9.57;;;;;;;15.73;100.00;100542.11;713692;1199;115469;-78
2021/08/21 02:29:56;;;;;;;24.13;13.78;;;;;;;15.75;100.00;100548.08;713757;1200;114451;-78
2021/08/21 02:44:58;;;;;;;18.08;9.90;;;;;;;15.82;100.00;100549.10;713711;1200;114051;-78
2021/08/21 03:00:01;;;;;;;17.70;10.43;;;;;;;15.79;100.00;100547.58;713790;1202;114390;-75
2021/08/21 03:15:04;;;;;;;16.55;9.10;;;;;;;15.79;100.00;100541.47;713739;1200;114656;-78
2021/08/21 03:30:08;;;;;;;15.95;10.53;;;;;;;15.70;100.00;100545.91;713782;1202;116358;-77
2021/08/21 03:45:10;;;;;;;18.03;10.30;;;;;;;15.65;100.00;100542.92;713670;1204;114923;-78
2021/08/21 04:00:12;;;;;;;22.98;11.45;;;;;;;15.90;100.00;100556.23;713727;1199;115306;-77
2021/08/21 04:15:15;;;;;;;25.33;13.28;;;;;;;15.91;100.00;100571.93;713950;1200;114794;-77
2021/08/21 04:30:17;;;;;;;23.90;11.78;;;;;;;16.01;100.00;100576.23;713709;1200;115382;-77
2021/08/21 04:45:19;;;;;;;17.83;10.80;;;;;;;16.01;100.00;100571.80;713845;1192;115933;-78
2021/08/21 05:00:21;;;;;;;18.20;10.83;;;;;;;16.06;100.00;100584.52;713905;1200;114372;-78
2021/08/21 05:15:23;;;;;;;18.88;11.85;;;;;;;16.16;100.00;100589.67;713804;1200;115727;-78
2021/08/21 05:30:28;;;;;;;28.90;16.23;;;;;;;16.29;100.00;100595.30;713814;1199;114650;-77
2021/08/21 05:45:30;;;;;;;19.10;11.15;;;;;;;16.31;100.00;100609.17;713724;1181;114372;-79
2021/08/21 06:00:33;;;;;;;17.13;9.65;;;;;;;16.12;100.00;100618.27;714095;1200;114524;-78
2021/08/21 06:15:36;;;;;;;17.33;10.08;;;;;;;16.32;100.00;100624.08;713934;1176;114328;-78
2021/08/21 06:30:38;;;;;;;57.03;35.35;;;;;;;16.54;100.00;100633.19;713889;1205;115955;-78
2021/08/21 06:45:41;;;;;;;19.95;11.68;;;;;;;16.87;100.00;100632.34;714261;1178;114889;-79
2021/08/21 07:00:43;;;;;;;28.38;15.18;;;;;;;17.09;100.00;100642.27;714601;1200;115379;-79
2021/08/21 07:15:45;;;;;;;18.93;10.45;;;;;;;17.75;100.00;100646.48;714094;1203;116006;-79
2021/08/21 07:30:47;;;;;;;9.45;7.90;;;;;;;18.24;100.00;100651.55;714323;1176;114414;-78
2021/08/21 07:45:50;;;;;;;8.48;5.10;;;;;;;18.45;100.00;100666.83;714494;1202;114264;-79
2021/08/21 08:00:52;;;;;;;5.40;4.33;;;;;;;18.20;100.00;100682.11;713883;1199;114651;-78
2021/08/21 08:15:55;;;;;;;5.67;3.83;;;;;;;18.49;100.00;100693.87;716284;1200;115912;-93
2021/08/21 08:30:57;;;;;;;10.05;5.50;;;;;;;18.20;100.00;100697.20;717048;1199;115583;-91
2021/08/21 08:45:59;;;;;;;20.50;12.80;;;;;;;18.81;100.00;100702.58;718539;1177;114265;-93
2021/08/21 09:01:02;;;;;;;31.45;15.60;;;;;;;18.90;100.00;100716.66;720274;1200;115538;-92
2021/08/21 09:16:04;;;;;;;7.20;5.00;;;;;;;19.73;100.00;100721.93;720066;1199;116021;-94
2021/08/21 09:31:06;;;;;;;8.65;5.68;;;;;;;20.41;100.00;100733.20;718123;1199;115421;-94
2021/08/21 09:46:20;;;;;;;12.17;8.47;;;;;;;21.44;100.00;100743.53;717254;1203;114041;-81
2021/08/21 10:01:23;;;;;;;6.08;5.03;;;;;;;22.38;100.00;100732.45;715434;1200;114307;-80
2021/08/21 10:16:26;;;;;;;5.10;3.35;;;;;;;23.09;100.00;100744.43;715597;1200;114132;-81
2021/08/21 10:31:37;;;;;;;7.68;3.50;;;;;;;23.74;99.88;100738.34;716149;1202;115142;-81
2021/08/21 10:46:41;;;;;;;5.47;3.70;;;;;;;23.57;97.68;100751.38;716592;1206;113876;-82
2021/08/21 11:01:44;;;;;;;4.10;3.03;;;;;;;24.45;94.08;100754.54;715397;1200;113852;-83
2021/08/21 11:16:55;;;;;;;4.20;2.70;;;;;;;25.30;90.90;100759.47;715451;1177;113992;-82
2021/08/21 11:31:59;;;;;;;5.18;2.55;;;;;;;23.48;87.63;100766.02;715027;1176;114129;-78
2021/08/21 11:47:09;;;;;;;4.05;2.03;;;;;;;24.01;84.39;100755.17;714287;1177;113904;-78
2021/08/21 12:02:14;;;;;;;3.70;2.70;;;;;;;25.33;82.77;100750.15;713866;1203;115547;-77
2021/08/21 12:17:17;;;;;;;2.83;2.37;;;;;;;27.23;77.45;100743.64;714040;1177;113958;-78
2021/08/21 12:32:26;;;;;;;3.15;2.03;;;;;;;27.11;69.21;100751.72;714485;1200;114911;-77
2021/08/21 12:47:36;;;;;;;3.63;1.80;;;;;;;27.13;64.37;100754.17;714166;1179;114673;-76
2021/08/21 13:02:47;;;;;;;2.65;1.80;;;;;;;27.41;61.54;100745.39;714098;1202;114362;-75
2021/08/21 13:17:49;;;;;;;2.73;1.50;;;;;;;26.47;60.54;100735.34;714388;1200;115001;-73
2021/08/21 13:32:52;;;;;;;3.10;1.68;;;;;;;25.55;62.32;100723.69;714593;1203;115229;-72
2021/08/21 13:47:55;;;;;;;3.67;1.83;;;;;;;24.99;63.10;100733.53;714541;1203;115358;-78
2021/08/21 14:02:57;;;;;;;4.83;2.70;;;;;;;23.66;65.18;100728.69;714374;1199;115311;-72
2021/08/21 14:18:00;;;;;;;1.78;1.48;;;;;;;25.27;65.30;100724.18;714331;1199;115102;-70
2021/08/21 14:33:12;;;;;;;4.45;1.80;;;;;;;36.05;54.01;100720.09;714497;1199;113978;-72
2021/08/21 14:48:14;;;;;;;6.10;4.65;;;;;;;35.76;50.46;100732.73;714304;1200;115793;-72
2021/08/21 15:03:17;;;;;;;5.33;4.83;;;;;;;32.10;51.94;100707.67;714545;1199;115047;-72
2021/08/21 15:18:19;;;;;;;4.73;3.13;;;;;;;27.09;55.63;100699.97;714758;1200;115209;-73
2021/08/21 15:33:24;;;;;;;20.18;10.55;;;;;;;27.66;54.65;100706.57;714719;1199;113834;-78
2021/08/21 15:48:26;;;;;;;16.10;9.10;;;;;;;24.75;58.52;100698.45;714761;1202;115627;-77
2021/08/21 16:03:30;;;;;;;6.63;4.78;;;;;;;24.07;61.52;100698.06;714567;1200;115779;-72
2021/08/21 16:18:32;;;;;;;3.20;2.43;;;;;;;24.01;62.13;100692.74;714880;1199;113994;-77
2021/08/21 16:33:34;;;;;;;3.85;2.68;;;;;;;23.84;62.13;100695.06;715048;1185;117316;-73
2021/08/21 16:48:36;;;;;;;6.73;3.63;;;;;;;23.63;64.63;100686.28;714700;1200;113996;-78
2021/08/21 17:03:39;;;;;;;16.00;9.08;;;;;;;22.82;68.50;100695.47;714371;1202;114130;-75
2021/08/21 17:18:41;;;;;;;6.83;4.30;;;;;;;21.97;72.55;100695.95;714804;1191;114280;-82
2021/08/21 17:33:45;;;;;;;19.58;12.58;;;;;;;21.25;75.86;100706.88;714508;1200;115033;-77
2021/08/21 17:48:48;;;;;;;29.47;19.63;;;;;;;20.67;78.44;100712.36;714698;1202;114387;-77
2021/08/21 18:03:51;;;;;;;22.13;10.75;;;;;;;19.96;82.29;100719.19;714479;1200;114582;-79
2021/08/21 18:18:54;;;;;;;15.90;9.13;;;;;;;19.38;84.90;100719.83;714497;1204;115987;-78
2021/08/21 18:33:56;;;;;;;8.50;5.45;;;;;;;18.92;88.10;100746.53;714334;1203;114558;-79
2021/08/21 18:48:58;;;;;;;9.57;6.80;;;;;;;18.62;90.31;100754.35;714594;1180;114379;-77
2021/08/21 19:04:03;;;;;;;12.25;7.00;;;;;;;18.08;91.93;100752.51;714513;1176;114032;-78
2021/08/21 19:19:05;;;;;;;30.95;16.10;;;;;;;17.67;93.91;100769.41;714605;1181;114177;-79
2021/08/21 19:34:07;;;;;;;20.95;14.10;;;;;;;17.19;95.41;100763.19;714761;1200;114534;-77
2021/08/21 19:49:09;;;;;;;97.05;50.60;;;;;;;17.00;98.62;100781.08;715185;1195;114356;-79
2021/08/21 20:04:16;;;;;;;61.30;36.37;;;;;;;16.64;99.54;100798.06;714450;1203;114446;-78
2021/08/21 20:19:19;;;;;;;55.10;33.28;;;;;;;16.53;100.00;100803.66;715170;1199;115074;-80
2021/08/21 20:34:21;;;;;;;36.10;22.80;;;;;;;16.20;100.00;100810.67;714667;1203;114475;-78
2021/08/21 20:49:24;;;;;;;59.43;34.63;;;;;;;16.10;100.00;100802.84;714364;1177;114650;-77
2021/08/21 21:04:28;;;;;;;24.00;14.85;;;;;;;15.75;100.00;100805.45;715160;1174;115054;-79
2021/08/21 21:19:30;;;;;;;72.17;32.97;;;;;;;15.64;100.00;100795.16;714714;1177;114898;-78
2021/08/21 21:34:39;;;;;;;23.02;13.08;;;;;;;15.51;100.00;100792.09;714940;1200;115993;-77
2021/08/21 21:49:41;;;;;;;63.75;28.65;;;;;;;15.30;100.00;100790.63;715414;1200;114555;-78
2021/08/21 22:04:45;;;;;;;35.30;19.55;;;;;;;15.25;100.00;100790.25;716970;1202;115446;-78
2021/08/21 22:19:47;;;;;;;37.13;21.85;;;;;;;15.01;100.00;100789.06;714898;1200;115863;-78
2021/08/21 22:34:50;;;;;;;34.90;19.53;;;;;;;14.87;100.00;100790.41;715231;1185;114696;-78
2021/08/21 22:49:53;;;;;;;33.57;16.83;;;;;;;14.90;100.00;100776.08;715256;1200;114735;-77
2021/08/21 23:04:55;;;;;;;8.55;5.63;;;;;;;15.10;100.00;100769.66;714239;1206;114490;-79
2021/08/21 23:19:57;;;;;;;8.03;5.20;;;;;;;15.24;100.00;100770.08;713930;1177;115319;-78
2021/08/21 23:35:00;;;;;;;13.30;7.55;;;;;;;15.29;100.00;100776.55;713881;1200;114405;-78
2021/08/21 23:50:03;;;;;;;9.93;6.17;;;;;;;15.29;100.00;100771.27;720960;1200;114310;-78
